sensor_id;sensor_type;location;lat;lon;timestamp;temperature;humidity
298;DHT22;133;49.626;9.680;2023-01-20T00:00:08;2.40;94.20
298;DHT22;133;49.626;9.680;2023-01-20T00:02:35;2.30;94.30
298;DHT22;133;49.626;9.680;2023-01-20T00:05:01;2.30;94.20
298;DHT22;133;49.626;9.680;2023-01-20T00:07:27;2.30;93.90
298;DHT22;133;49.626;9.680;2023-01-20T00:09:52;2.30;94.20
298;DHT22;133;49.626;9.680;2023-01-20T00:12:18;2.20;93.80
298;DHT22;133;49.626;9.680;2023-01-20T00:14:43;2.20;94.10
298;DHT22;133;49.626;9.680;2023-01-20T00:17:09;2.20;94.10
298;DHT22;133;49.626;9.680;2023-01-20T00:19:34;2.30;94.20
298;DHT22;133;49.626;9.680;2023-01-20T00:22:00;2.30;94.20
298;DHT22;133;49.626;9.680;2023-01-20T00:24:26;2.30;94.40
298;DHT22;133;49.626;9.680;2023-01-20T00:26:51;2.30;94.30
298;DHT22;133;49.626;9.680;2023-01-20T00:29:17;2.40;94.40
298;DHT22;133;49.626;9.680;2023-01-20T00:31:42;2.40;94.20
298;DHT22;133;49.626;9.680;2023-01-20T00:34:09;2.40;94.10
298;DHT22;133;49.626;9.680;2023-01-20T00:36:35;2.50;94.10
298;DHT22;133;49.626;9.680;2023-01-20T00:39:01;2.50;93.90
298;DHT22;133;49.626;9.680;2023-01-20T00:41:27;2.40;93.70
298;DHT22;133;49.626;9.680;2023-01-20T00:43:53;2.40;93.70
298;DHT22;133;49.626;9.680;2023-01-20T00:46:19;2.50;93.80
298;DHT22;133;49.626;9.680;2023-01-20T00:48:47;2.50;93.80
298;DHT22;133;49.626;9.680;2023-01-20T00:51:12;2.50;93.90
298;DHT22;133;49.626;9.680;2023-01-20T00:53:38;2.50;93.90
298;DHT22;133;49.626;9.680;2023-01-20T00:56:04;2.50;94.10
298;DHT22;133;49.626;9.680;2023-01-20T00:58:30;2.50;94.10
298;DHT22;133;49.626;9.680;2023-01-20T01:00:55;2.50;93.90
298;DHT22;133;49.626;9.680;2023-01-20T01:03:23;2.50;94.20
298;DHT22;133;49.626;9.680;2023-01-20T01:05:49;2.50;94.20
298;DHT22;133;49.626;9.680;2023-01-20T01:08:14;2.50;94.30
298;DHT22;133;49.626;9.680;2023-01-20T01:10:40;2.50;94.20
298;DHT22;133;49.626;9.680;2023-01-20T01:13:06;2.50;94.30
298;DHT22;133;49.626;9.680;2023-01-20T01:15:32;2.40;94.20
298;DHT22;133;49.626;9.680;2023-01-20T01:17:58;2.40;94.30
298;DHT22;133;49.626;9.680;2023-01-20T01:20:25;2.40;94.40
298;DHT22;133;49.626;9.680;2023-01-20T01:22:51;2.40;94.40
298;DHT22;133;49.626;9.680;2023-01-20T01:25:17;2.40;94.20
298;DHT22;133;49.626;9.680;2023-01-20T01:27:43;2.40;94.20
298;DHT22;133;49.626;9.680;2023-01-20T01:30:10;2.50;94.20
298;DHT22;133;49.626;9.680;2023-01-20T01:32:35;2.50;94.20
298;DHT22;133;49.626;9.680;2023-01-20T01:35:01;2.50;94.40
298;DHT22;133;49.626;9.680;2023-01-20T01:37:27;2.50;94.40
298;DHT22;133;49.626;9.680;2023-01-20T01:39:53;2.50;94.60
298;DHT22;133;49.626;9.680;2023-01-20T01:42:22;2.50;94.40
298;DHT22;133;49.626;9.680;2023-01-20T01:47:45;2.50;94.40
298;DHT22;133;49.626;9.680;2023-01-20T01:50:19;2.50;94.40
298;DHT22;133;49.626;9.680;2023-01-20T01:52:48;2.50;94.30
298;DHT22;133;49.626;9.680;2023-01-20T01:55:15;2.50;94.40
298;DHT22;133;49.626;9.680;2023-01-20T01:57:42;2.50;94.10
298;DHT22;133;49.626;9.680;2023-01-20T02:00:08;2.50;94.10
298;DHT22;133;49.626;9.680;2023-01-20T02:02:34;2.50;94.30
298;DHT22;133;49.626;9.680;2023-01-20T02:05:00;2.50;94.30
298;DHT22;133;49.626;9.680;2023-01-20T02:07:27;2.50;94.60
298;DHT22;133;49.626;9.680;2023-01-20T02:09:52;2.50;94.30
298;DHT22;133;49.626;9.680;2023-01-20T02:12:19;2.50;94.30
298;DHT22;133;49.626;9.680;2023-01-20T02:14:48;2.60;94.30
298;DHT22;133;49.626;9.680;2023-01-20T02:17:30;2.60;93.90
298;DHT22;133;49.626;9.680;2023-01-20T02:23:21;2.50;94.10
298;DHT22;133;49.626;9.680;2023-01-20T02:31:24;2.60;94.00
298;DHT22;133;49.626;9.680;2023-01-20T02:36:58;2.60;94.40
298;DHT22;133;49.626;9.680;2023-01-20T02:42:21;2.50;94.40
298;DHT22;133;49.626;9.680;2023-01-20T02:45:09;2.50;94.20
298;DHT22;133;49.626;9.680;2023-01-20T02:47:44;2.50;94.20
298;DHT22;133;49.626;9.680;2023-01-20T02:50:20;2.40;93.80
298;DHT22;133;49.626;9.680;2023-01-20T02:52:53;2.40;94.10
298;DHT22;133;49.626;9.680;2023-01-20T02:55:26;2.30;94.20
298;DHT22;133;49.626;9.680;2023-01-20T02:58:00;2.30;94.20
298;DHT22;133;49.626;9.680;2023-01-20T03:00:52;2.40;94.20
298;DHT22;133;49.626;9.680;2023-01-20T03:03:20;2.30;93.90
298;DHT22;133;49.626;9.680;2023-01-20T03:05:52;2.30;94.30
298;DHT22;133;49.626;9.680;2023-01-20T03:08:20;2.30;94.30
298;DHT22;133;49.626;9.680;2023-01-20T03:10:48;2.40;94.40
298;DHT22;133;49.626;9.680;2023-01-20T03:13:29;2.40;94.10
298;DHT22;133;49.626;9.680;2023-01-20T03:16:11;2.40;94.20
298;DHT22;133;49.626;9.680;2023-01-20T03:18:39;2.40;93.90
298;DHT22;133;49.626;9.680;2023-01-20T03:21:06;2.40;94.20
298;DHT22;133;49.626;9.680;2023-01-20T03:23:37;2.40;94.10
298;DHT22;133;49.626;9.680;2023-01-20T03:26:08;2.40;94.20
298;DHT22;133;49.626;9.680;2023-01-20T03:28:34;2.40;94.20
298;DHT22;133;49.626;9.680;2023-01-20T03:31:00;2.40;94.30
298;DHT22;133;49.626;9.680;2023-01-20T03:33:30;2.40;94.20
298;DHT22;133;49.626;9.680;2023-01-20T03:35:56;2.40;94.10
298;DHT22;133;49.626;9.680;2023-01-20T03:38:21;2.40;94.10
298;DHT22;133;49.626;9.680;2023-01-20T03:41:19;2.40;94.30
298;DHT22;133;49.626;9.680;2023-01-20T03:43:58;2.40;94.20
298;DHT22;133;49.626;9.680;2023-01-20T03:46:41;2.40;94.40
298;DHT22;133;49.626;9.680;2023-01-20T03:49:31;2.40;94.90
298;DHT22;133;49.626;9.680;2023-01-20T03:52:36;2.40;95.10
298;DHT22;133;49.626;9.680;2023-01-20T03:55:13;2.40;94.80
298;DHT22;133;49.626;9.680;2023-01-20T03:57:48;2.30;94.90
298;DHT22;133;49.626;9.680;2023-01-20T04:00:19;2.40;94.60
298;DHT22;133;49.626;9.680;2023-01-20T04:02:46;2.40;94.50
298;DHT22;133;49.626;9.680;2023-01-20T04:05:12;2.40;94.50
298;DHT22;133;49.626;9.680;2023-01-20T04:07:39;2.40;94.50
298;DHT22;133;49.626;9.680;2023-01-20T04:10:11;2.40;94.50
298;DHT22;133;49.626;9.680;2023-01-20T04:12:38;2.40;94.60
298;DHT22;133;49.626;9.680;2023-01-20T04:15:06;2.50;94.50
298;DHT22;133;49.626;9.680;2023-01-20T04:17:32;2.50;94.60
298;DHT22;133;49.626;9.680;2023-01-20T04:20:03;2.60;94.40
298;DHT22;133;49.626;9.680;2023-01-20T04:22:42;2.50;94.00
298;DHT22;133;49.626;9.680;2023-01-20T04:25:13;2.50;94.10
298;DHT22;133;49.626;9.680;2023-01-20T04:27:38;2.50;94.00
298;DHT22;133;49.626;9.680;2023-01-20T04:30:04;2.50;94.00
298;DHT22;133;49.626;9.680;2023-01-20T04:32:30;2.50;93.80
298;DHT22;133;49.626;9.680;2023-01-20T04:34:56;2.50;94.00
298;DHT22;133;49.626;9.680;2023-01-20T04:37:21;2.50;93.80
298;DHT22;133;49.626;9.680;2023-01-20T04:39:47;2.50;93.80
298;DHT22;133;49.626;9.680;2023-01-20T04:42:12;2.50;93.80
298;DHT22;133;49.626;9.680;2023-01-20T04:44:38;2.40;93.40
298;DHT22;133;49.626;9.680;2023-01-20T04:47:04;2.40;93.70
298;DHT22;133;49.626;9.680;2023-01-20T04:49:29;2.40;93.90
298;DHT22;133;49.626;9.680;2023-01-20T04:51:55;2.40;94.10
298;DHT22;133;49.626;9.680;2023-01-20T04:54:20;2.40;93.90
298;DHT22;133;49.626;9.680;2023-01-20T04:56:49;2.30;94.20
298;DHT22;133;49.626;9.680;2023-01-20T04:59:15;2.30;94.40
298;DHT22;133;49.626;9.680;2023-01-20T05:01:40;2.30;94.40
298;DHT22;133;49.626;9.680;2023-01-20T05:04:06;2.30;94.70
298;DHT22;133;49.626;9.680;2023-01-20T05:06:31;2.30;94.80
298;DHT22;133;49.626;9.680;2023-01-20T05:08:57;2.40;94.80
298;DHT22;133;49.626;9.680;2023-01-20T05:11:22;2.30;94.90
298;DHT22;133;49.626;9.680;2023-01-20T05:13:48;2.40;94.90
298;DHT22;133;49.626;9.680;2023-01-20T05:16:14;2.40;95.00
298;DHT22;133;49.626;9.680;2023-01-20T05:18:39;2.40;94.90
298;DHT22;133;49.626;9.680;2023-01-20T05:21:05;2.30;94.60
298;DHT22;133;49.626;9.680;2023-01-20T05:23:33;2.20;95.00
298;DHT22;133;49.626;9.680;2023-01-20T05:25:58;2.30;95.00
298;DHT22;133;49.626;9.680;2023-01-20T05:28:24;2.30;94.60
298;DHT22;133;49.626;9.680;2023-01-20T05:30:50;2.30;94.60
298;DHT22;133;49.626;9.680;2023-01-20T05:33:16;2.40;94.60
298;DHT22;133;49.626;9.680;2023-01-20T05:35:41;2.30;94.60
298;DHT22;133;49.626;9.680;2023-01-20T05:38:07;2.30;94.90
298;DHT22;133;49.626;9.680;2023-01-20T05:40:33;2.30;94.90
298;DHT22;133;49.626;9.680;2023-01-20T05:43:02;2.30;95.00
298;DHT22;133;49.626;9.680;2023-01-20T05:45:28;2.30;95.10
298;DHT22;133;49.626;9.680;2023-01-20T05:47:58;2.30;95.10
298;DHT22;133;49.626;9.680;2023-01-20T05:50:26;2.30;95.10
298;DHT22;133;49.626;9.680;2023-01-20T05:52:52;2.30;95.00
298;DHT22;133;49.626;9.680;2023-01-20T05:55:18;2.40;94.90
298;DHT22;133;49.626;9.680;2023-01-20T05:57:44;2.30;94.80
298;DHT22;133;49.626;9.680;2023-01-20T06:00:10;2.30;94.90
298;DHT22;133;49.626;9.680;2023-01-20T06:02:37;2.30;94.90
298;DHT22;133;49.626;9.680;2023-01-20T06:05:03;2.20;95.10
298;DHT22;133;49.626;9.680;2023-01-20T06:07:29;2.20;95.20
298;DHT22;133;49.626;9.680;2023-01-20T06:09:55;2.20;95.10
298;DHT22;133;49.626;9.680;2023-01-20T06:12:22;2.20;94.90
298;DHT22;133;49.626;9.680;2023-01-20T06:14:47;2.20;94.90
298;DHT22;133;49.626;9.680;2023-01-20T06:17:13;2.10;94.60
298;DHT22;133;49.626;9.680;2023-01-20T06:19:39;2.10;94.60
298;DHT22;133;49.626;9.680;2023-01-20T06:22:06;2.00;94.80
298;DHT22;133;49.626;9.680;2023-01-20T06:24:32;2.00;94.70
298;DHT22;133;49.626;9.680;2023-01-20T06:26:57;1.90;94.90
298;DHT22;133;49.626;9.680;2023-01-20T06:29:23;1.90;95.10
298;DHT22;133;49.626;9.680;2023-01-20T06:31:48;2.00;95.10
298;DHT22;133;49.626;9.680;2023-01-20T06:34:14;1.90;95.00
298;DHT22;133;49.626;9.680;2023-01-20T06:36:40;1.90;95.20
298;DHT22;133;49.626;9.680;2023-01-20T06:39:06;2.00;95.30
298;DHT22;133;49.626;9.680;2023-01-20T06:41:31;2.00;95.20
298;DHT22;133;49.626;9.680;2023-01-20T06:43:57;2.00;95.30
298;DHT22;133;49.626;9.680;2023-01-20T06:46:23;2.10;95.20
298;DHT22;133;49.626;9.680;2023-01-20T06:48:48;2.10;95.00
298;DHT22;133;49.626;9.680;2023-01-20T06:51:18;2.10;95.10
298;DHT22;133;49.626;9.680;2023-01-20T06:53:45;2.00;95.00
298;DHT22;133;49.626;9.680;2023-01-20T06:56:12;2.00;95.20
298;DHT22;133;49.626;9.680;2023-01-20T06:58:38;2.10;95.10
298;DHT22;133;49.626;9.680;2023-01-20T07:01:21;2.10;94.80
298;DHT22;133;49.626;9.680;2023-01-20T07:03:47;2.10;94.70
298;DHT22;133;49.626;9.680;2023-01-20T07:06:35;2.10;94.70
298;DHT22;133;49.626;9.680;2023-01-20T07:09:04;2.10;94.40
298;DHT22;133;49.626;9.680;2023-01-20T07:11:30;2.10;94.80
298;DHT22;133;49.626;9.680;2023-01-20T07:13:56;2.00;94.80
298;DHT22;133;49.626;9.680;2023-01-20T07:16:21;2.00;94.90
298;DHT22;133;49.626;9.680;2023-01-20T07:18:48;2.00;95.00
298;DHT22;133;49.626;9.680;2023-01-20T07:21:15;2.10;94.70
298;DHT22;133;49.626;9.680;2023-01-20T07:23:40;2.00;94.10
298;DHT22;133;49.626;9.680;2023-01-20T07:26:09;1.90;94.70
298;DHT22;133;49.626;9.680;2023-01-20T07:28:36;1.80;95.00
298;DHT22;133;49.626;9.680;2023-01-20T07:31:06;1.80;95.30
298;DHT22;133;49.626;9.680;2023-01-20T07:33:32;1.80;95.30
298;DHT22;133;49.626;9.680;2023-01-20T07:35:58;1.70;95.40
298;DHT22;133;49.626;9.680;2023-01-20T07:38:24;1.70;95.60
298;DHT22;133;49.626;9.680;2023-01-20T07:40:50;1.70;95.90
298;DHT22;133;49.626;9.680;2023-01-20T07:43:15;1.70;96.00
298;DHT22;133;49.626;9.680;2023-01-20T07:45:41;1.70;96.20
298;DHT22;133;49.626;9.680;2023-01-20T07:48:07;1.80;96.10
298;DHT22;133;49.626;9.680;2023-01-20T07:50:34;1.80;95.90
298;DHT22;133;49.626;9.680;2023-01-20T07:52:59;1.80;95.90
298;DHT22;133;49.626;9.680;2023-01-20T07:55:25;1.90;95.90
298;DHT22;133;49.626;9.680;2023-01-20T07:57:50;1.90;95.80
298;DHT22;133;49.626;9.680;2023-01-20T08:00:19;1.90;95.90
298;DHT22;133;49.626;9.680;2023-01-20T08:02:45;1.90;95.90
298;DHT22;133;49.626;9.680;2023-01-20T08:05:11;2.00;95.80
298;DHT22;133;49.626;9.680;2023-01-20T08:07:36;2.00;95.70
298;DHT22;133;49.626;9.680;2023-01-20T08:10:03;2.10;95.60
298;DHT22;133;49.626;9.680;2023-01-20T08:12:28;2.00;95.50
298;DHT22;133;49.626;9.680;2023-01-20T08:14:54;2.10;95.50
298;DHT22;133;49.626;9.680;2023-01-20T08:17:20;2.10;95.50
298;DHT22;133;49.626;9.680;2023-01-20T08:19:46;2.20;95.40
298;DHT22;133;49.626;9.680;2023-01-20T08:22:12;2.20;95.10
298;DHT22;133;49.626;9.680;2023-01-20T08:24:37;2.20;94.90
298;DHT22;133;49.626;9.680;2023-01-20T08:27:03;2.30;95.00
298;DHT22;133;49.626;9.680;2023-01-20T08:29:28;2.30;95.10
298;DHT22;133;49.626;9.680;2023-01-20T08:31:58;2.30;94.90
298;DHT22;133;49.626;9.680;2023-01-20T08:34:24;2.30;94.80
298;DHT22;133;49.626;9.680;2023-01-20T08:36:50;2.40;94.90
298;DHT22;133;49.626;9.680;2023-01-20T08:39:18;2.40;94.90
298;DHT22;133;49.626;9.680;2023-01-20T08:41:46;2.50;94.80
298;DHT22;133;49.626;9.680;2023-01-20T08:44:12;2.50;94.40
298;DHT22;133;49.626;9.680;2023-01-20T08:46:38;2.60;94.50
298;DHT22;133;49.626;9.680;2023-01-20T08:49:09;2.70;94.00
298;DHT22;133;49.626;9.680;2023-01-20T08:51:35;2.70;93.70
298;DHT22;133;49.626;9.680;2023-01-20T08:54:01;2.70;93.40
298;DHT22;133;49.626;9.680;2023-01-20T08:56:28;2.60;93.30
298;DHT22;133;49.626;9.680;2023-01-20T08:58:55;2.60;93.10
298;DHT22;133;49.626;9.680;2023-01-20T09:01:27;2.60;93.40
298;DHT22;133;49.626;9.680;2023-01-20T09:03:53;2.60;93.20
298;DHT22;133;49.626;9.680;2023-01-20T09:06:19;2.70;93.20
298;DHT22;133;49.626;9.680;2023-01-20T09:08:46;2.70;92.90
298;DHT22;133;49.626;9.680;2023-01-20T09:11:15;2.70;92.50
298;DHT22;133;49.626;9.680;2023-01-20T09:13:41;2.80;92.50
298;DHT22;133;49.626;9.680;2023-01-20T09:16:07;2.70;91.70
298;DHT22;133;49.626;9.680;2023-01-20T09:18:34;2.80;91.90
298;DHT22;133;49.626;9.680;2023-01-20T09:21:01;2.90;91.90
298;DHT22;133;49.626;9.680;2023-01-20T09:23:27;2.90;91.80
298;DHT22;133;49.626;9.680;2023-01-20T09:25:53;3.00;91.30
298;DHT22;133;49.626;9.680;2023-01-20T09:28:19;3.00;91.20
298;DHT22;133;49.626;9.680;2023-01-20T09:30:45;2.90;91.40
298;DHT22;133;49.626;9.680;2023-01-20T09:33:11;2.90;91.70
298;DHT22;133;49.626;9.680;2023-01-20T09:35:37;3.00;92.00
298;DHT22;133;49.626;9.680;2023-01-20T09:38:04;2.90;91.90
298;DHT22;133;49.626;9.680;2023-01-20T09:52:47;3.10;92.30
298;DHT22;133;49.626;9.680;2023-01-20T09:55:42;3.20;92.50
298;DHT22;133;49.626;9.680;2023-01-20T10:01:05;3.30;92.30
298;DHT22;133;49.626;9.680;2023-01-20T10:03:36;3.20;91.70
298;DHT22;133;49.626;9.680;2023-01-20T10:06:14;3.20;91.00
298;DHT22;133;49.626;9.680;2023-01-20T10:09:08;3.20;90.80
298;DHT22;133;49.626;9.680;2023-01-20T10:11:39;3.10;91.00
298;DHT22;133;49.626;9.680;2023-01-20T10:14:42;3.10;91.40
298;DHT22;133;49.626;9.680;2023-01-20T10:19:58;3.10;91.00
298;DHT22;133;49.626;9.680;2023-01-20T10:22:46;3.10;91.30
298;DHT22;133;49.626;9.680;2023-01-20T10:25:24;3.20;91.00
298;DHT22;133;49.626;9.680;2023-01-20T10:27:57;3.20;90.80
298;DHT22;133;49.626;9.680;2023-01-20T10:30:28;3.20;90.90
298;DHT22;133;49.626;9.680;2023-01-20T10:35:28;3.50;91.10
298;DHT22;133;49.626;9.680;2023-01-20T10:37:56;3.70;90.80
298;DHT22;133;49.626;9.680;2023-01-20T10:43:15;3.90;88.70
298;DHT22;133;49.626;9.680;2023-01-20T10:46:05;4.00;87.90
298;DHT22;133;49.626;9.680;2023-01-20T10:48:57;4.10;88.00
298;DHT22;133;49.626;9.680;2023-01-20T10:51:31;4.10;87.30
298;DHT22;133;49.626;9.680;2023-01-20T10:56:52;4.30;86.60
298;DHT22;133;49.626;9.680;2023-01-20T10:59:57;4.30;86.70
298;DHT22;133;49.626;9.680;2023-01-20T11:02:28;4.50;86.20
298;DHT22;133;49.626;9.680;2023-01-20T11:07:33;4.60;85.20
298;DHT22;133;49.626;9.680;2023-01-20T11:10:12;4.50;84.80
298;DHT22;133;49.626;9.680;2023-01-20T11:12:40;4.50;85.40
298;DHT22;133;49.626;9.680;2023-01-20T11:15:19;4.50;85.60
298;DHT22;133;49.626;9.680;2023-01-20T11:17:45;4.60;86.20
298;DHT22;133;49.626;9.680;2023-01-20T11:20:18;4.60;86.90
298;DHT22;133;49.626;9.680;2023-01-20T11:22:47;4.70;86.60
298;DHT22;133;49.626;9.680;2023-01-20T11:25:25;4.80;86.20
298;DHT22;133;49.626;9.680;2023-01-20T11:27:52;4.90;86.90
298;DHT22;133;49.626;9.680;2023-01-20T11:30:30;4.90;85.70
298;DHT22;133;49.626;9.680;2023-01-20T11:33:15;5.00;85.60
298;DHT22;133;49.626;9.680;2023-01-20T11:36:05;5.10;84.70
298;DHT22;133;49.626;9.680;2023-01-20T11:41:26;5.00;83.60
298;DHT22;133;49.626;9.680;2023-01-20T11:43:54;5.10;83.90
298;DHT22;133;49.626;9.680;2023-01-20T11:46:27;5.20;84.70
298;DHT22;133;49.626;9.680;2023-01-20T11:49:16;5.40;82.90
298;DHT22;133;49.626;9.680;2023-01-20T11:51:44;5.20;82.60
298;DHT22;133;49.626;9.680;2023-01-20T11:54:15;5.10;83.70
298;DHT22;133;49.626;9.680;2023-01-20T11:56:43;5.10;84.70
298;DHT22;133;49.626;9.680;2023-01-20T11:59:36;5.20;84.10
298;DHT22;133;49.626;9.680;2023-01-20T12:05:02;6.00;83.90
298;DHT22;133;49.626;9.680;2023-01-20T12:07:45;6.70;80.20
298;DHT22;133;49.626;9.680;2023-01-20T12:10:23;7.30;79.40
298;DHT22;133;49.626;9.680;2023-01-20T12:13:24;8.10;77.90
298;DHT22;133;49.626;9.680;2023-01-20T12:15:54;8.10;75.80
298;DHT22;133;49.626;9.680;2023-01-20T12:21:02;7.60;75.90
298;DHT22;133;49.626;9.680;2023-01-20T12:23:40;7.20;77.00
298;DHT22;133;49.626;9.680;2023-01-20T12:26:12;7.30;76.50
298;DHT22;133;49.626;9.680;2023-01-20T12:31:44;7.60;77.00
298;DHT22;133;49.626;9.680;2023-01-20T12:34:28;7.30;77.00
298;DHT22;133;49.626;9.680;2023-01-20T12:45:52;5.30;81.00
298;DHT22;133;49.626;9.680;2023-01-20T12:48:33;4.90;81.90
298;DHT22;133;49.626;9.680;2023-01-20T12:51:32;4.70;83.70
298;DHT22;133;49.626;9.680;2023-01-20T13:11:20;4.90;83.90
298;DHT22;133;49.626;9.680;2023-01-20T13:14:05;5.00;83.00
298;DHT22;133;49.626;9.680;2023-01-20T13:22:07;4.50;83.50
298;DHT22;133;49.626;9.680;2023-01-20T13:24:34;4.40;83.40
298;DHT22;133;49.626;9.680;2023-01-20T13:27:00;4.60;85.00
298;DHT22;133;49.626;9.680;2023-01-20T13:32:02;4.30;84.20
298;DHT22;133;49.626;9.680;2023-01-20T13:34:31;4.20;84.40
298;DHT22;133;49.626;9.680;2023-01-20T13:39:40;4.50;85.30
298;DHT22;133;49.626;9.680;2023-01-20T13:47:50;4.50;83.80
298;DHT22;133;49.626;9.680;2023-01-20T13:58:24;4.70;83.80
298;DHT22;133;49.626;9.680;2023-01-20T14:00:57;4.70;82.60
298;DHT22;133;49.626;9.680;2023-01-20T14:03:26;4.90;83.30
298;DHT22;133;49.626;9.680;2023-01-20T14:06:00;5.00;82.40
298;DHT22;133;49.626;9.680;2023-01-20T14:08:36;4.80;82.30
298;DHT22;133;49.626;9.680;2023-01-20T14:11:13;4.60;82.20
298;DHT22;133;49.626;9.680;2023-01-20T14:13:40;4.70;84.00
298;DHT22;133;49.626;9.680;2023-01-20T14:16:50;4.60;82.70
298;DHT22;133;49.626;9.680;2023-01-20T14:19:30;4.60;82.60
298;DHT22;133;49.626;9.680;2023-01-20T14:21:59;4.60;82.10
298;DHT22;133;49.626;9.680;2023-01-20T14:24:36;4.50;82.60
298;DHT22;133;49.626;9.680;2023-01-20T14:27:26;4.40;82.80
298;DHT22;133;49.626;9.680;2023-01-20T14:29:54;4.20;83.10
298;DHT22;133;49.626;9.680;2023-01-20T14:32:31;4.50;83.20
298;DHT22;133;49.626;9.680;2023-01-20T14:34:58;4.40;81.70
298;DHT22;133;49.626;9.680;2023-01-20T14:37:33;4.40;82.50
298;DHT22;133;49.626;9.680;2023-01-20T14:40:38;4.50;82.00
298;DHT22;133;49.626;9.680;2023-01-20T14:43:21;4.70;81.80
298;DHT22;133;49.626;9.680;2023-01-20T14:45:49;4.70;81.00
298;DHT22;133;49.626;9.680;2023-01-20T14:48:16;4.80;81.60
298;DHT22;133;49.626;9.680;2023-01-20T14:50:44;4.90;80.30
298;DHT22;133;49.626;9.680;2023-01-20T14:53:13;4.80;80.80
298;DHT22;133;49.626;9.680;2023-01-20T14:55:40;4.70;80.40
298;DHT22;133;49.626;9.680;2023-01-20T14:58:17;4.60;80.90
298;DHT22;133;49.626;9.680;2023-01-20T15:00:47;4.40;80.70
298;DHT22;133;49.626;9.680;2023-01-20T15:03:27;4.10;81.30
298;DHT22;133;49.626;9.680;2023-01-20T15:06:03;4.00;82.30
298;DHT22;133;49.626;9.680;2023-01-20T15:13:38;4.20;82.90
298;DHT22;133;49.626;9.680;2023-01-20T15:16:29;4.10;82.10
298;DHT22;133;49.626;9.680;2023-01-20T15:21:47;3.80;83.50
298;DHT22;133;49.626;9.680;2023-01-20T15:26:43;3.40;84.10
298;DHT22;133;49.626;9.680;2023-01-20T15:29:21;3.30;84.40
298;DHT22;133;49.626;9.680;2023-01-20T15:31:48;3.20;84.70
298;DHT22;133;49.626;9.680;2023-01-20T15:34:14;3.10;85.60
298;DHT22;133;49.626;9.680;2023-01-20T15:36:39;3.00;85.50
298;DHT22;133;49.626;9.680;2023-01-20T15:39:09;2.90;86.00
298;DHT22;133;49.626;9.680;2023-01-20T15:41:35;2.70;86.80
298;DHT22;133;49.626;9.680;2023-01-20T15:44:01;2.60;87.40
298;DHT22;133;49.626;9.680;2023-01-20T15:46:26;2.50;87.30
298;DHT22;133;49.626;9.680;2023-01-20T15:48:52;2.40;87.70
298;DHT22;133;49.626;9.680;2023-01-20T15:51:19;2.30;87.80
298;DHT22;133;49.626;9.680;2023-01-20T15:53:45;2.20;87.80
298;DHT22;133;49.626;9.680;2023-01-20T15:56:15;2.10;89.00
298;DHT22;133;49.626;9.680;2023-01-20T15:58:43;2.10;89.20
298;DHT22;133;49.626;9.680;2023-01-20T16:01:12;2.10;89.20
298;DHT22;133;49.626;9.680;2023-01-20T16:03:41;2.10;89.40
298;DHT22;133;49.626;9.680;2023-01-20T16:06:12;2.00;89.20
298;DHT22;133;49.626;9.680;2023-01-20T16:08:38;2.00;89.20
298;DHT22;133;49.626;9.680;2023-01-20T16:11:05;1.90;89.40
298;DHT22;133;49.626;9.680;2023-01-20T16:13:30;1.90;89.70
298;DHT22;133;49.626;9.680;2023-01-20T16:15:56;1.80;90.00
298;DHT22;133;49.626;9.680;2023-01-20T16:18:22;1.80;90.10
298;DHT22;133;49.626;9.680;2023-01-20T16:20:48;1.70;90.40
298;DHT22;133;49.626;9.680;2023-01-20T16:23:16;1.70;90.30
298;DHT22;133;49.626;9.680;2023-01-20T16:25:42;1.60;90.40
298;DHT22;133;49.626;9.680;2023-01-20T16:30:37;1.50;90.30
298;DHT22;133;49.626;9.680;2023-01-20T16:33:03;1.50;90.40
298;DHT22;133;49.626;9.680;2023-01-20T16:35:29;1.40;90.60
298;DHT22;133;49.626;9.680;2023-01-20T16:37:54;1.40;90.90
298;DHT22;133;49.626;9.680;2023-01-20T16:40:21;1.40;91.10
298;DHT22;133;49.626;9.680;2023-01-20T16:42:47;1.40;91.20
298;DHT22;133;49.626;9.680;2023-01-20T16:47:47;1.40;91.50
298;DHT22;133;49.626;9.680;2023-01-20T16:50:13;1.30;91.50
298;DHT22;133;49.626;9.680;2023-01-20T16:52:38;1.20;91.20
298;DHT22;133;49.626;9.680;2023-01-20T16:55:04;1.20;91.00
298;DHT22;133;49.626;9.680;2023-01-20T16:57:30;1.00;91.00
298;DHT22;133;49.626;9.680;2023-01-20T16:59:56;1.00;91.00
298;DHT22;133;49.626;9.680;2023-01-20T17:02:22;1.00;91.50
298;DHT22;133;49.626;9.680;2023-01-20T17:04:47;1.00;91.20
298;DHT22;133;49.626;9.680;2023-01-20T17:07:13;0.90;91.20
298;DHT22;133;49.626;9.680;2023-01-20T17:09:39;0.90;91.10
298;DHT22;133;49.626;9.680;2023-01-20T17:12:06;0.80;91.40
298;DHT22;133;49.626;9.680;2023-01-20T17:14:32;0.80;91.20
298;DHT22;133;49.626;9.680;2023-01-20T17:16:57;0.60;91.70
298;DHT22;133;49.626;9.680;2023-01-20T17:19:24;0.60;91.70
298;DHT22;133;49.626;9.680;2023-01-20T17:21:50;0.60;91.80
298;DHT22;133;49.626;9.680;2023-01-20T17:24:15;0.60;91.90
298;DHT22;133;49.626;9.680;2023-01-20T17:26:41;0.50;91.90
298;DHT22;133;49.626;9.680;2023-01-20T17:29:07;0.50;92.10
298;DHT22;133;49.626;9.680;2023-01-20T17:31:33;0.50;92.00
298;DHT22;133;49.626;9.680;2023-01-20T17:34:05;0.50;92.80
298;DHT22;133;49.626;9.680;2023-01-20T17:36:31;0.60;93.00
298;DHT22;133;49.626;9.680;2023-01-20T17:38:59;0.60;92.60
298;DHT22;133;49.626;9.680;2023-01-20T17:41:26;0.70;92.50
298;DHT22;133;49.626;9.680;2023-01-20T17:43:52;0.70;92.40
298;DHT22;133;49.626;9.680;2023-01-20T17:46:28;0.80;92.40
298;DHT22;133;49.626;9.680;2023-01-20T17:48:58;0.70;92.10
298;DHT22;133;49.626;9.680;2023-01-20T17:51:27;0.80;92.40
298;DHT22;133;49.626;9.680;2023-01-20T17:53:53;0.80;92.30
298;DHT22;133;49.626;9.680;2023-01-20T17:56:20;0.80;92.20
298;DHT22;133;49.626;9.680;2023-01-20T17:58:46;0.90;92.30
298;DHT22;133;49.626;9.680;2023-01-20T18:01:21;0.90;92.00
298;DHT22;133;49.626;9.680;2023-01-20T18:03:48;0.90;92.10
298;DHT22;133;49.626;9.680;2023-01-20T18:06:16;1.00;91.90
298;DHT22;133;49.626;9.680;2023-01-20T18:08:43;1.10;91.90
298;DHT22;133;49.626;9.680;2023-01-20T18:11:13;1.10;91.90
298;DHT22;133;49.626;9.680;2023-01-20T18:13:44;1.20;92.20
298;DHT22;133;49.626;9.680;2023-01-20T18:16:12;1.20;92.20
298;DHT22;133;49.626;9.680;2023-01-20T18:18:39;1.20;92.20
298;DHT22;133;49.626;9.680;2023-01-20T18:21:09;1.30;91.90
298;DHT22;133;49.626;9.680;2023-01-20T18:23:35;1.30;91.50
298;DHT22;133;49.626;9.680;2023-01-20T18:26:01;1.20;91.10
298;DHT22;133;49.626;9.680;2023-01-20T18:28:26;1.20;91.20
298;DHT22;133;49.626;9.680;2023-01-20T18:30:58;1.20;91.30
298;DHT22;133;49.626;9.680;2023-01-20T18:33:24;1.10;90.70
298;DHT22;133;49.626;9.680;2023-01-20T18:35:49;1.10;91.30
298;DHT22;133;49.626;9.680;2023-01-20T18:38:16;1.20;91.80
298;DHT22;133;49.626;9.680;2023-01-20T18:40:41;1.20;91.70
298;DHT22;133;49.626;9.680;2023-01-20T18:43:07;1.20;91.60
298;DHT22;133;49.626;9.680;2023-01-20T18:45:32;1.10;91.40
298;DHT22;133;49.626;9.680;2023-01-20T18:47:58;1.10;91.40
298;DHT22;133;49.626;9.680;2023-01-20T18:50:23;1.00;91.30
298;DHT22;133;49.626;9.680;2023-01-20T18:52:49;0.90;91.50
298;DHT22;133;49.626;9.680;2023-01-20T18:55:15;0.80;91.70
298;DHT22;133;49.626;9.680;2023-01-20T18:57:40;0.70;92.30
298;DHT22;133;49.626;9.680;2023-01-20T19:00:06;0.70;92.60
298;DHT22;133;49.626;9.680;2023-01-20T19:02:32;0.80;92.60
298;DHT22;133;49.626;9.680;2023-01-20T19:04:58;0.70;92.20
298;DHT22;133;49.626;9.680;2023-01-20T19:07:24;0.70;92.20
298;DHT22;133;49.626;9.680;2023-01-20T19:09:49;0.70;92.20